^^
Station Historical Data
Daily Summary for January 28, 2018 Units:  Metric    English   Both
« Previous Day
Next Day »
Daily Weekly Monthly Yearly Custom
  High: Low: Average:
Temperature: -17.8 °C 15.6 °C 24.1 °C
Dew Point: -17.8 °C 1.2 °C 8.4 °C
Humidity: Humidity% 11% 44%
Wind Speed: 0km/h 0km/h 8.4km/h
Wind Gust: 0km/h - -
Wind- - SW
Pressure: 0 hPa 1003.3 hPa -
Precipitation: 0 mm    
Historical Graphs
 
 
Tabular Data for January 28, 2018
Time Temperature Dew Point Pressure Wind Wind Speed Wind Gust Humidity Rainfall Rate (Hourly) solar Conditions
-17.8 °C -17.8 °C 0 hPa Calm     Humidity% 0 mm SolarRadiationWatts/m^2 W/m2 Conditions
00:05 20.7 °C 11.9 °C 1009.4 hPa South 16.3 km/h 20.9 km/h 57% 0 mm 0.0 W/m2
00:10 20.6 °C 11.8 °C 1009.7 hPa SSW 16.3 km/h 22.5 km/h 57% 0 mm 0.0 W/m2
00:15 20.6 °C 11.8 °C 1009.4 hPa SSW 22.7 km/h 22.7 km/h 57% 0 mm 0.0 W/m2
00:20 20.5 °C 12 °C 1009.4 hPa South 17.7 km/h 22.5 km/h 58% 0 mm 0.0 W/m2
00:30 20.3 °C 12 °C 1009.4 hPa South 19.5 km/h 24.1 km/h 59% 0 mm 0.0 W/m2
00:40 20.1 °C 12.1 °C 1009.7 hPa South 14.3 km/h 19.3 km/h 60% 0 mm 0.0 W/m2
00:50 19.9 °C 11.9 °C 1009.4 hPa SSW 13 km/h 17.7 km/h 60% 0 mm 0.0 W/m2
00:55 19.8 °C 11.8 °C 1009.4 hPa SSW 13 km/h 16.1 km/h 60% 0 mm 0.0 W/m2
01:00 19.7 °C 11.5 °C 1009.4 hPa SSW 14.3 km/h 17.7 km/h 59% 0 mm 0.0 W/m2
01:05 19.7 °C 11.5 °C 1009 hPa SSW 9.7 km/h 17.7 km/h 59% 0 mm 0.0 W/m2
01:10 19.6 °C 11.6 °C 1009.4 hPa SSW 13 km/h 16.1 km/h 60% 0 mm 0.0 W/m2
01:20 19.4 °C 11.4 °C 1009 hPa SSW 7.9 km/h 16.1 km/h 60% 0 mm 0.0 W/m2
01:25 19.3 °C 11.3 °C 1009 hPa SSW 16.3 km/h 16.3 km/h 60% 0 mm 0.0 W/m2
01:30 19.2 °C 11.2 °C 1009 hPa SSW 14.3 km/h 16.1 km/h 60% 0 mm 0.0 W/m2
01:35 19.1 °C 11.2 °C 1009 hPa SSW 14.3 km/h 16.1 km/h 60% 0 mm 0.0 W/m2
01:40 19 °C 11.1 °C 1009 hPa SSW 14.3 km/h 14.5 km/h 60% 0 mm 0.0 W/m2
01:45 18.9 °C 11.2 °C 1009 hPa SSW 11.1 km/h 17.7 km/h 61% 0 mm 0.0 W/m2
01:50 18.9 °C 11.2 °C 1009 hPa SSW 11.1 km/h 16.1 km/h 61% 0 mm 0.0 W/m2
01:55 18.8 °C 11.1 °C 1009 hPa SSW 14.3 km/h 16.1 km/h 61% 0 mm 0.0 W/m2
02:01 18.7 °C 11.3 °C 1009 hPa SSW 13 km/h 17.7 km/h 62% 0 mm 0.0 W/m2
02:06 18.7 °C 11.3 °C 1008.7 hPa SSW 16.3 km/h 17.7 km/h 62% 0 mm 0.0 W/m2
02:11 18.6 °C 11.2 °C 1008.7 hPa SSW 13 km/h 19.3 km/h 62% 0 mm 0.0 W/m2
02:16 18.6 °C 11.4 °C 1008.7 hPa SSW 14.3 km/h 17.7 km/h 63% 0 mm 0.0 W/m2
02:21 18.6 °C 11.4 °C 1008.7 hPa SSW 14.3 km/h 17.7 km/h 63% 0 mm 0.0 W/m2
02:26 18.5 °C 11.3 °C 1008.7 hPa SSW 11.1 km/h 19.3 km/h 63% 0 mm 0.0 W/m2
02:31 18.5 °C 11.3 °C 1008.7 hPa SSW 13 km/h 16.1 km/h 63% 0 mm 0.0 W/m2
02:36 18.5 °C 11.3 °C 1008.7 hPa SSW 13 km/h 16.1 km/h 63% 0 mm 0.0 W/m2
02:56 18.2 °C 11.7 °C 1008.4 hPa SSW 16.3 km/h 16.3 km/h 66% 0 mm 0.0 W/m2
03:06 18.1 °C 11.9 °C 1008.4 hPa SSW 16.3 km/h 17.7 km/h 67% 0 mm 0.0 W/m2
03:16 18.1 °C 11.9 °C 1008 hPa SSW 17.7 km/h 20.9 km/h 67% 0 mm 0.0 W/m2
03:26 18 °C 11.8 °C 1008 hPa SSW 19.5 km/h 19.5 km/h 67% 0 mm 0.0 W/m2
03:31 18 °C 12 °C 1008 hPa SSW 9.7 km/h 17.7 km/h 68% 0 mm 0.0 W/m2
05:17 16.6 °C 10.9 °C 1008 hPa SSW 6.4 km/h 8 km/h 69% 0 mm 0.0 W/m2
05:22 16.5 °C 11 °C 1008 hPa SSW 4.7 km/h 8 km/h 70% 0 mm 0.0 W/m2
05:28 16.4 °C 10.9 °C 1008 hPa SSW 4.7 km/h 4.8 km/h 70% 0 mm 0.0 W/m2
05:33 16.2 °C 10.7 °C 1008.4 hPa SSW 6.4 km/h 6.4 km/h 70% 0 mm 0.0 W/m2
05:38 16.1 °C 10.8 °C 1008.4 hPa SSW 6.4 km/h 6.4 km/h 71% 0 mm 0.0 W/m2
05:43 16.1 °C 10.8 °C 1008.4 hPa SSW 6.4 km/h 8 km/h 71% 0 mm 0.0 W/m2
05:48 16 °C 10.7 °C 1008.4 hPa SSW 7.9 km/h 8 km/h 71% 0 mm 0.0 W/m2
05:53 15.9 °C 10.6 °C 1008.4 hPa SSW 6.4 km/h 8 km/h 71% 0 mm 0.0 W/m2
05:58 15.9 °C 10.6 °C 1008.4 hPa SSW 7.9 km/h 9.7 km/h 71% 0 mm 0.0 W/m2
06:03 16 °C 10.7 °C 1008.4 hPa SSW 9.7 km/h 9.7 km/h 71% 0 mm 0.0 W/m2
06:13 15.9 °C 10.6 °C 1008.4 hPa SSW 3.2 km/h 4.8 km/h 71% 0 mm 0.0 W/m2
06:18 15.8 °C 10.6 °C 1008.4 hPa Calm     71% 0 mm 5.0 W/m2
06:28 15.6 °C 10.6 °C 1008.7 hPa Calm     72% 0 mm 11.0 W/m2
06:34 15.6 °C 10.6 °C 1008.7 hPa Calm     72% 0 mm 14.0 W/m2
06:39 15.6 °C 10.6 °C 1008.7 hPa Calm     72% 0 mm 16.0 W/m2
06:44 15.7 °C 10.7 °C 1008.7 hPa Calm     72% 0 mm 25.0 W/m2
06:54 16.2 °C 10.9 °C 1008.7 hPa Calm     71% 0 mm 53.0 W/m2
06:59 16.4 °C 10.9 °C 1008.7 hPa Calm     70% 0 mm 69.0 W/m2
07:06 16.8 °C 11.3 °C 1009 hPa Calm     70% 0 mm 86.0 W/m2
07:09 17.1 °C 11.4 °C 1009 hPa Calm     69% 0 mm 107.0 W/m2
07:12 17.1 °C 11.4 °C 1009 hPa Calm     69% 0 mm 107.0 W/m2
07:23 17.6 °C 11.4 °C 1009 hPa Calm     67% 0 mm 149.0 W/m2
07:30 17.9 °C 11.5 °C 1009 hPa Calm     66% 0 mm 199.0 W/m2
07:40 18.2 °C 11.5 °C 1009 hPa Calm     65% 0 mm 237.0 W/m2
07:59 18.7 °C 11.5 °C 1009 hPa SSW 7.9 km/h 11.3 km/h 63% 0 mm 294.0 W/m2
08:05 19.1 °C 11.6 °C 1009 hPa SSW 7.9 km/h 9.7 km/h 62% 0 mm 329.0 W/m2
08:25 19.7 °C 11.7 °C 1009 hPa SSW 7.9 km/h 11.3 km/h 60% 0 mm 381.0 W/m2
08:36 20.2 °C 11.7 °C 1008.7 hPa SSW 7.9 km/h 11.3 km/h 58% 0 mm 418.0 W/m2
08:46 20.4 °C 11.6 °C 1008.7 hPa SW 9.7 km/h 11.3 km/h 57% 0 mm 455.0 W/m2
09:01 21 °C 11.6 °C 1008.7 hPa SW 11.1 km/h 11.3 km/h 55% 0 mm 504.0 W/m2
09:13 21.7 °C 11.4 °C 1008.7 hPa SW 6.4 km/h 6.4 km/h 52% 0 mm 555.0 W/m2
09:16 22 °C 11.7 °C 1008.4 hPa SW 7.9 km/h 11.3 km/h 52% 0 mm 573.0 W/m2
09:24 22.3 °C 11.7 °C 1008.4 hPa SW 9.7 km/h 11.3 km/h 51% 0 mm 591.0 W/m2
09:33 22.8 °C 11.5 °C 1008.7 hPa SW 6.4 km/h 9.7 km/h 49% 0 mm 621.0 W/m2
10:22 25.7 °C 11.1 °C 1008.4 hPa Calm     40% 0 mm 754.0 W/m2
10:34 27.1 °C 10.3 °C 1008 hPa Calm     35% 0 mm 798.0 W/m2
10:37 27.5 °C 10.7 °C 1008 hPa Calm     35% 0 mm 809.0 W/m2
10:51 27.8 °C 9.6 °C 1008 hPa Calm   8 km/h 32% 0 mm 828.0 W/m2
10:59 27.9 °C 8.7 °C 1007.7 hPa SW 3.2 km/h 3.2 km/h 30% 0 mm 854.0 W/m2
11:49 30.2 °C 8 °C 1007.3 hPa West 7.9 km/h 8 km/h 25% 0 mm 940.0 W/m2
12:00 30.5 °C 7.6 °C 1007 hPa Calm     24% 0 mm 951.0 W/m2
12:05 30.8 °C 7.9 °C 1007 hPa Calm     24% 0 mm 962.0 W/m2
12:12 31.1 °C 6.9 °C 1007 hPa Calm     22% 0 mm 965.0 W/m2
12:24 31.4 °C 6.4 °C 1006.7 hPa Calm     21% 0 mm 969.0 W/m2
12:32 31.6 °C 6.6 °C 1006.7 hPa Calm     21% 0 mm 976.0 W/m2
12:45 32.1 °C 7 °C 1006.7 hPa Calm   8 km/h 21% 0 mm 979.0 W/m2
13:00 32.8 °C 5.4 °C 1006.3 hPa West 7.9 km/h 8 km/h 18% 0 mm 993.0 W/m2
13:09 33.3 °C 5.8 °C 1006.3 hPa Calm     18% 0 mm 981.0 W/m2
13:17 33.9 °C 3.6 °C 1006 hPa West 7.9 km/h 12.9 km/h 15% 0 mm 983.0 W/m2
13:26 33.8 °C 3.6 °C 1005.6 hPa West 1.4 km/h 1.6 km/h 15% 0 mm 983.0 W/m2
13:31 33.7 °C 3.5 °C 1005.6 hPa Calm   1.6 km/h 15% 0 mm 979.0 W/m2
13:36 34 °C 2.7 °C 1005.6 hPa Calm   9.7 km/h 14% 0 mm 974.0 W/m2
13:43 34.2 °C 2.9 °C 1005.6 hPa Calm     14% 0 mm 976.0 W/m2
13:54 34.6 °C 4.2 °C 1005.3 hPa Calm     15% 0 mm 963.0 W/m2
14:02 34.7 °C 4.3 °C 1005 hPa Calm   4.8 km/h 15% 0 mm 954.0 W/m2
14:08 34.6 °C 4.2 °C 1005 hPa Calm   4.8 km/h 15% 0 mm 949.0 W/m2
14:12 34.7 °C 4.3 °C 1005 hPa West 4.7 km/h 12.9 km/h 15% 0 mm 942.0 W/m2
14:19 34.6 °C 5.1 °C 1004.6 hPa Calm   8 km/h 16% 0 mm 932.0 W/m2
14:32 35.4 °C 4.8 °C 1004.6 hPa Calm   3.2 km/h 15% 0 mm 921.0 W/m2
14:41 35.7 °C 4.1 °C 1004.6 hPa WNW 6.4 km/h 16.1 km/h 14% 0 mm 907.0 W/m2
14:49 35.7 °C 5.1 °C 1004.3 hPa Calm     15% 0 mm 891.0 W/m2
14:58 36.1 °C 4.4 °C 1004.3 hPa NNW 6.4 km/h 17.7 km/h 14% 0 mm 872.0 W/m2
15:04 35.7 °C 4.1 °C 1003.9 hPa Calm     14% 0 mm 856.0 W/m2
15:10 35.9 °C 5.2 °C 1003.9 hPa Calm     15% 0 mm 846.0 W/m2
15:21 36.4 °C 3.6 °C 1003.9 hPa NW 19.5 km/h 22.5 km/h 13% 0 mm 831.0 W/m2
15:31 36.1 °C 3.3 °C 1003.9 hPa NW 9.7 km/h 12.9 km/h 13% 0 mm 805.0 W/m2
15:40 35.9 °C 4.2 °C 1003.6 hPa Calm     14% 0 mm 777.0 W/m2
15:50 36.3 °C 2.4 °C 1003.6 hPa WNW 9.7 km/h 20.9 km/h 12% 0 mm 752.0 W/m2
16:00 36.4 °C 2.4 °C 1003.6 hPa WNW 4.7 km/h 12.9 km/h 12% 0 mm 726.0 W/m2
16:02 36.2 °C 2.3 °C 1003.6 hPa Calm     12% 0 mm 707.0 W/m2
16:08 36.4 °C 1.2 °C 1003.3 hPa WNW 1.4 km/h 19.3 km/h 11% 0 mm 698.0 W/m2
16:34 36.4 °C 1.2 °C 1003.3 hPa WNW 11.1 km/h 19.3 km/h 11% 0 mm 622.0 W/m2
22:02 29.6 °C 7.5 °C 1005.6 hPa SSW 17.7 km/h 24.1 km/h 25% 0 mm 0.0 W/m2
22:07 29.4 °C 7.3 °C 1005.3 hPa SSW 24.1 km/h 24.1 km/h 25% 0 mm 0.0 W/m2
22:17 29.2 °C 5.9 °C 1005.6 hPa SSW 22.7 km/h 25.7 km/h 23% 0 mm 0.0 W/m2
22:22 29.1 °C 5.9 °C 1005.6 hPa SSW 20.9 km/h 22.5 km/h 23% 0 mm 0.0 W/m2
22:27 29 °C 5.1 °C 1005.6 hPa SSW 24.1 km/h 24.1 km/h 22% 0 mm 0.0 W/m2
22:32 28.9 °C 5 °C 1005.6 hPa SSW 20.9 km/h 25.7 km/h 22% 0 mm 0.0 W/m2
22:37 28.7 °C 4.9 °C 1005.6 hPa SSW 16.3 km/h 22.5 km/h 22% 0 mm 0.0 W/m2
22:47 28.4 °C 5.9 °C 1006 hPa SSW 20.9 km/h 25.7 km/h 24% 0 mm 0.0 W/m2
22:52 28.3 °C 5.2 °C 1006 hPa SSW 19.5 km/h 20.9 km/h 23% 0 mm 0.0 W/m2
23:02 28 °C 5.5 °C 1006.3 hPa SSW 16.3 km/h 19.3 km/h 24% 0 mm 0.0 W/m2
23:22 27.6 °C 5.8 °C 1006.3 hPa SSW 11.1 km/h 19.3 km/h 25% 0 mm 0.0 W/m2
23:27 27.4 °C 6.2 °C 1006.3 hPa SSW 14.3 km/h 19.3 km/h 26% 0 mm 0.0 W/m2
23:32 27.3 °C 6.1 °C 1006.3 hPa SSW 14.3 km/h 20.9 km/h 26% 0 mm 0.0 W/m2
23:37 27.1 °C 6.5 °C 1006.3 hPa SSW 14.3 km/h 19.3 km/h 27% 0 mm 0.0 W/m2
23:47 26.9 °C 6.3 °C 1006.7 hPa SSW 14.3 km/h 17.7 km/h 27% 0 mm 0.0 W/m2
23:52 26.8 °C 6.8 °C 1006.7 hPa SSW 11.1 km/h 19.3 km/h 28% 0 mm 0.0 W/m2
23:57 26.7 °C 6.7 °C 1006.7 hPa SSW 14.3 km/h 16.1 km/h 28% 0 mm 0.0 W/m2
Canyon Roadhouse, Fishriver Canyon, Namibia
Compliments of Weather Underground - 2.25 mb